Ceilidh 1 — KAYLEE — position and weather

sailwx.info

Track history (hours):
 
Tides and Currents Weather Stations Pressure Air Temp Water Temp Dewpoint Dewpoint Depression Visibility Wind Speed Wind Dir Waves Ship Positions

Ceilidh 1

Last reported at 2017-Oct-09 21:49 UTC. Time now 2017-Oct-20 14:36 UTC.
Position N 49°19' W 123°06'.
Warning: this ship's position is 10 days out of date.

Length 14 m.

Type: Pleasure craft. MMSI: 316020137.

Date/timePositionNaut miles runAvg speedWind from/ knotsBaromVisibWave heightAir tempDewpointWater temp
2017-Oct-09 21:49N 49°19' W 123°06'1 4.0
2017-Oct-09 21:28N 49°19' W 123°08'3 7.2
2017-Oct-09 21:00N 49°19' W 123°13'3 7.0
2017-Oct-09 20:30N 49°21' W 123°17'2 0.0
2017-Oct-07 20:39N 49°23' W 123°20'1 4.3
2017-Oct-07 20:30N 49°23' W 123°19'4 7.2
2017-Oct-07 20:00N 49°20' W 123°16'1 1.0
2017-Oct-07 19:29N 49°20' W 123°15'1 2.7
2017-Oct-07 19:00N 49°20' W 123°13'4 8.1
2017-Oct-07 18:30N 49°19' W 123°07'  
Track history (hours):
 
Tides and Currents Weather Stations Pressure Air Temp Water Temp Dewpoint Dewpoint Depression Visibility Wind Speed Wind Dir Waves Ship Positions

Ceilidh 1

Last reported at 2017-Oct-09 21:49 UTC. Time now 2017-Oct-20 14:36 UTC.
Position N 49°19' W 123°06'.
Warning: this ship's position is 10 days out of date.

Length 14 m.

Type: Pleasure craft. MMSI: 316020137.

Date/timePositionNaut miles runAvg speedWind from/ knotsBaromVisibWave heightAir tempDewpointWater temp
2017-Oct-09 21:49N 49°19' W 123°06'1 4.0
2017-Oct-09 21:28N 49°19' W 123°08'3 7.2
2017-Oct-09 21:00N 49°19' W 123°13'3 7.0
2017-Oct-09 20:30N 49°21' W 123°17'2 0.0
2017-Oct-07 20:39N 49°23' W 123°20'1 4.3
2017-Oct-07 20:30N 49°23' W 123°19'4 7.2
2017-Oct-07 20:00N 49°20' W 123°16'1 1.0
2017-Oct-07 19:29N 49°20' W 123°15'1 2.7
2017-Oct-07 19:00N 49°20' W 123°13'4 8.1
2017-Oct-07 18:30N 49°19' W 123°07'  

Dump ship's entire track history